sensor_id;sensor_type;location;lat;lon;timestamp;P1;durP1;ratioP1;P2;durP2;ratioP2
76807;SDS011;65758;45.458;11.062;2023-03-14T00:01:15;15.60;;;11.40;;
76807;SDS011;65758;45.458;11.062;2023-03-14T00:03:44;15.40;;;10.60;;
76807;SDS011;65758;45.458;11.062;2023-03-14T00:06:11;17.20;;;11.70;;
76807;SDS011;65758;45.458;11.062;2023-03-14T00:08:40;16.10;;;11.40;;
76807;SDS011;65758;45.458;11.062;2023-03-14T00:11:08;17.60;;;12.40;;
76807;SDS011;65758;45.458;11.062;2023-03-14T00:13:37;16.60;;;11.20;;
76807;SDS011;65758;45.458;11.062;2023-03-14T00:16:05;14.10;;;11.60;;
76807;SDS011;65758;45.458;11.062;2023-03-14T00:18:38;15.60;;;11.90;;
76807;SDS011;65758;45.458;11.062;2023-03-14T00:21:05;16.00;;;11.90;;
76807;SDS011;65758;45.458;11.062;2023-03-14T00:23:34;16.70;;;12.40;;
76807;SDS011;65758;45.458;11.062;2023-03-14T00:26:04;17.20;;;11.50;;
76807;SDS011;65758;45.458;11.062;2023-03-14T00:28:36;15.20;;;11.40;;
76807;SDS011;65758;45.458;11.062;2023-03-14T00:31:04;17.80;;;11.80;;
76807;SDS011;65758;45.458;11.062;2023-03-14T00:33:35;18.50;;;11.90;;
76807;SDS011;65758;45.458;11.062;2023-03-14T00:36:03;16.70;;;11.20;;
76807;SDS011;65758;45.458;11.062;2023-03-14T00:38:32;16.80;;;12.40;;
76807;SDS011;65758;45.458;11.062;2023-03-14T00:41:04;15.60;;;11.90;;
76807;SDS011;65758;45.458;11.062;2023-03-14T00:43:32;14.90;;;11.00;;
76807;SDS011;65758;45.458;11.062;2023-03-14T00:45:59;14.30;;;10.60;;
76807;SDS011;65758;45.458;11.062;2023-03-14T00:48:26;16.40;;;11.20;;
76807;SDS011;65758;45.458;11.062;2023-03-14T00:50:53;17.80;;;12.30;;
76807;SDS011;65758;45.458;11.062;2023-03-14T00:53:20;15.40;;;11.10;;
76807;SDS011;65758;45.458;11.062;2023-03-14T00:55:48;13.10;;;9.90;;
76807;SDS011;65758;45.458;11.062;2023-03-14T00:58:15;13.90;;;11.00;;
76807;SDS011;65758;45.458;11.062;2023-03-14T01:00:43;13.70;;;10.90;;
76807;SDS011;65758;45.458;11.062;2023-03-14T01:03:12;17.40;;;11.00;;
76807;SDS011;65758;45.458;11.062;2023-03-14T01:05:41;15.50;;;11.20;;
76807;SDS011;65758;45.458;11.062;2023-03-14T01:08:08;17.20;;;11.40;;
76807;SDS011;65758;45.458;11.062;2023-03-14T01:10:37;15.90;;;10.80;;
76807;SDS011;65758;45.458;11.062;2023-03-14T01:13:06;13.60;;;9.70;;
76807;SDS011;65758;45.458;11.062;2023-03-14T01:15:35;17.60;;;9.30;;
76807;SDS011;65758;45.458;11.062;2023-03-14T01:18:03;12.50;;;9.90;;
76807;SDS011;65758;45.458;11.062;2023-03-14T01:20:30;11.70;;;9.30;;
76807;SDS011;65758;45.458;11.062;2023-03-14T01:22:58;12.40;;;9.10;;
76807;SDS011;65758;45.458;11.062;2023-03-14T01:25:25;11.50;;;8.80;;
76807;SDS011;65758;45.458;11.062;2023-03-14T01:27:53;12.00;;;8.50;;
76807;SDS011;65758;45.458;11.062;2023-03-14T01:30:20;11.30;;;8.30;;
76807;SDS011;65758;45.458;11.062;2023-03-14T01:32:47;12.50;;;8.60;;
76807;SDS011;65758;45.458;11.062;2023-03-14T01:35:14;11.20;;;8.60;;
76807;SDS011;65758;45.458;11.062;2023-03-14T01:37:41;10.10;;;7.90;;
76807;SDS011;65758;45.458;11.062;2023-03-14T01:40:11;14.60;;;9.10;;
76807;SDS011;65758;45.458;11.062;2023-03-14T01:42:44;11.80;;;8.40;;
76807;SDS011;65758;45.458;11.062;2023-03-14T01:48:17;10.10;;;7.40;;
76807;SDS011;65758;45.458;11.062;2023-03-14T01:50:43;10.10;;;8.10;;
76807;SDS011;65758;45.458;11.062;2023-03-14T01:53:10;10.20;;;6.80;;
76807;SDS011;65758;45.458;11.062;2023-03-14T01:55:37;11.00;;;7.80;;
76807;SDS011;65758;45.458;11.062;2023-03-14T01:58:04;9.00;;;6.90;;
76807;SDS011;65758;45.458;11.062;2023-03-14T02:00:32;13.80;;;7.70;;
76807;SDS011;65758;45.458;11.062;2023-03-14T02:03:00;10.50;;;7.60;;
76807;SDS011;65758;45.458;11.062;2023-03-14T02:05:34;11.60;;;7.90;;
76807;SDS011;65758;45.458;11.062;2023-03-14T02:08:10;9.00;;;7.00;;
76807;SDS011;65758;45.458;11.062;2023-03-14T02:11:00;8.90;;;6.40;;
76807;SDS011;65758;45.458;11.062;2023-03-14T02:13:42;8.60;;;6.70;;
76807;SDS011;65758;45.458;11.062;2023-03-14T02:16:24;11.00;;;6.60;;
76807;SDS011;65758;45.458;11.062;2023-03-14T02:19:23;10.50;;;6.00;;
76807;SDS011;65758;45.458;11.062;2023-03-14T02:22:19;9.30;;;7.00;;
76807;SDS011;65758;45.458;11.062;2023-03-14T02:27:35;11.60;;;6.10;;
76807;SDS011;65758;45.458;11.062;2023-03-14T02:30:08;9.50;;;6.50;;
76807;SDS011;65758;45.458;11.062;2023-03-14T02:32:39;6.90;;;5.60;;
76807;SDS011;65758;45.458;11.062;2023-03-14T02:35:14;8.70;;;7.00;;
76807;SDS011;65758;45.458;11.062;2023-03-14T02:40:22;12.80;;;7.10;;
76807;SDS011;65758;45.458;11.062;2023-03-14T02:42:50;8.30;;;6.40;;
76807;SDS011;65758;45.458;11.062;2023-03-14T02:47:46;8.90;;;6.50;;
76807;SDS011;65758;45.458;11.062;2023-03-14T02:50:18;9.50;;;6.70;;
76807;SDS011;65758;45.458;11.062;2023-03-14T02:52:49;9.50;;;5.50;;
76807;SDS011;65758;45.458;11.062;2023-03-14T02:55:20;7.70;;;5.90;;
76807;SDS011;65758;45.458;11.062;2023-03-14T02:57:49;10.70;;;6.90;;
76807;SDS011;65758;45.458;11.062;2023-03-14T03:00:17;10.70;;;6.70;;
76807;SDS011;65758;45.458;11.062;2023-03-14T03:02:44;8.90;;;6.60;;
76807;SDS011;65758;45.458;11.062;2023-03-14T03:05:13;8.10;;;6.60;;
76807;SDS011;65758;45.458;11.062;2023-03-14T03:07:40;11.60;;;7.30;;
76807;SDS011;65758;45.458;11.062;2023-03-14T03:10:06;8.10;;;6.10;;
76807;SDS011;65758;45.458;11.062;2023-03-14T03:12:34;9.10;;;6.50;;
76807;SDS011;65758;45.458;11.062;2023-03-14T03:15:01;11.30;;;6.90;;
76807;SDS011;65758;45.458;11.062;2023-03-14T03:17:28;7.80;;;6.20;;
76807;SDS011;65758;45.458;11.062;2023-03-14T03:19:55;10.20;;;5.80;;
76807;SDS011;65758;45.458;11.062;2023-03-14T03:22:22;7.90;;;4.90;;
76807;SDS011;65758;45.458;11.062;2023-03-14T03:24:48;8.90;;;6.30;;
76807;SDS011;65758;45.458;11.062;2023-03-14T03:27:15;8.10;;;6.00;;
76807;SDS011;65758;45.458;11.062;2023-03-14T03:29:42;7.40;;;5.50;;
76807;SDS011;65758;45.458;11.062;2023-03-14T03:32:09;10.50;;;6.70;;
76807;SDS011;65758;45.458;11.062;2023-03-14T03:34:36;9.00;;;6.10;;
76807;SDS011;65758;45.458;11.062;2023-03-14T03:37:03;9.70;;;6.60;;
76807;SDS011;65758;45.458;11.062;2023-03-14T03:39:32;7.80;;;5.60;;
76807;SDS011;65758;45.458;11.062;2023-03-14T03:41:59;7.70;;;6.10;;
76807;SDS011;65758;45.458;11.062;2023-03-14T03:44:26;9.10;;;5.10;;
76807;SDS011;65758;45.458;11.062;2023-03-14T03:46:53;8.00;;;6.30;;
76807;SDS011;65758;45.458;11.062;2023-03-14T03:49:20;10.90;;;6.90;;
76807;SDS011;65758;45.458;11.062;2023-03-14T03:51:47;7.00;;;5.30;;
76807;SDS011;65758;45.458;11.062;2023-03-14T03:54:14;11.10;;;7.10;;
76807;SDS011;65758;45.458;11.062;2023-03-14T03:56:41;8.20;;;5.40;;
76807;SDS011;65758;45.458;11.062;2023-03-14T03:59:07;10.20;;;6.60;;
76807;SDS011;65758;45.458;11.062;2023-03-14T04:01:34;12.60;;;6.90;;
76807;SDS011;65758;45.458;11.062;2023-03-14T04:04:01;10.40;;;6.30;;
76807;SDS011;65758;45.458;11.062;2023-03-14T04:06:28;14.90;;;7.30;;
76807;SDS011;65758;45.458;11.062;2023-03-14T04:08:57;7.00;;;4.90;;
76807;SDS011;65758;45.458;11.062;2023-03-14T04:11:31;10.50;;;6.40;;
76807;SDS011;65758;45.458;11.062;2023-03-14T04:14:19;7.90;;;5.60;;
76807;SDS011;65758;45.458;11.062;2023-03-14T04:16:51;5.10;;;4.20;;
76807;SDS011;65758;45.458;11.062;2023-03-14T04:19:20;9.60;;;6.40;;
76807;SDS011;65758;45.458;11.062;2023-03-14T04:21:47;11.00;;;7.00;;
76807;SDS011;65758;45.458;11.062;2023-03-14T04:24:14;10.80;;;6.50;;
76807;SDS011;65758;45.458;11.062;2023-03-14T04:26:44;11.00;;;6.40;;
76807;SDS011;65758;45.458;11.062;2023-03-14T04:29:11;11.30;;;6.60;;
76807;SDS011;65758;45.458;11.062;2023-03-14T04:31:40;11.70;;;7.00;;
76807;SDS011;65758;45.458;11.062;2023-03-14T04:34:07;13.40;;;7.40;;
76807;SDS011;65758;45.458;11.062;2023-03-14T04:36:39;8.80;;;6.30;;
76807;SDS011;65758;45.458;11.062;2023-03-14T04:39:11;12.30;;;6.20;;
76807;SDS011;65758;45.458;11.062;2023-03-14T04:41:43;10.70;;;6.80;;
76807;SDS011;65758;45.458;11.062;2023-03-14T04:44:11;10.50;;;7.30;;
76807;SDS011;65758;45.458;11.062;2023-03-14T04:46:39;10.30;;;6.80;;
76807;SDS011;65758;45.458;11.062;2023-03-14T04:49:06;10.10;;;7.20;;
76807;SDS011;65758;45.458;11.062;2023-03-14T04:51:33;9.80;;;6.80;;
76807;SDS011;65758;45.458;11.062;2023-03-14T04:54:00;11.00;;;6.00;;
76807;SDS011;65758;45.458;11.062;2023-03-14T04:56:29;11.00;;;5.90;;
76807;SDS011;65758;45.458;11.062;2023-03-14T04:58:56;12.10;;;7.30;;
76807;SDS011;65758;45.458;11.062;2023-03-14T05:01:23;12.40;;;6.80;;
76807;SDS011;65758;45.458;11.062;2023-03-14T05:04:09;7.10;;;4.40;;
76807;SDS011;65758;45.458;11.062;2023-03-14T05:06:51;8.30;;;5.90;;
76807;SDS011;65758;45.458;11.062;2023-03-14T05:09:32;9.20;;;6.00;;
76807;SDS011;65758;45.458;11.062;2023-03-14T05:12:19;6.00;;;4.60;;
76807;SDS011;65758;45.458;11.062;2023-03-14T05:15:10;10.50;;;6.10;;
76807;SDS011;65758;45.458;11.062;2023-03-14T05:17:51;7.00;;;4.60;;
76807;SDS011;65758;45.458;11.062;2023-03-14T05:20:51;5.70;;;4.10;;
76807;SDS011;65758;45.458;11.062;2023-03-14T05:26:14;10.90;;;6.50;;
76807;SDS011;65758;45.458;11.062;2023-03-14T05:29:15;9.00;;;5.40;;
76807;SDS011;65758;45.458;11.062;2023-03-14T05:31:56;8.70;;;5.60;;
76807;SDS011;65758;45.458;11.062;2023-03-14T05:34:49;9.80;;;5.40;;
76807;SDS011;65758;45.458;11.062;2023-03-14T05:37:30;6.20;;;4.70;;
76807;SDS011;65758;45.458;11.062;2023-03-14T05:40:19;7.50;;;4.60;;
76807;SDS011;65758;45.458;11.062;2023-03-14T05:43:04;11.80;;;5.10;;
76807;SDS011;65758;45.458;11.062;2023-03-14T05:45:55;10.70;;;5.90;;
76807;SDS011;65758;45.458;11.062;2023-03-14T05:48:37;9.00;;;5.30;;
76807;SDS011;65758;45.458;11.062;2023-03-14T05:51:07;12.40;;;5.60;;
76807;SDS011;65758;45.458;11.062;2023-03-14T05:53:56;8.40;;;5.20;;
76807;SDS011;65758;45.458;11.062;2023-03-14T05:56:41;6.70;;;5.00;;
76807;SDS011;65758;45.458;11.062;2023-03-14T05:59:26;9.80;;;5.40;;
76807;SDS011;65758;45.458;11.062;2023-03-14T06:02:02;9.90;;;5.00;;
76807;SDS011;65758;45.458;11.062;2023-03-14T06:04:35;10.00;;;5.40;;
76807;SDS011;65758;45.458;11.062;2023-03-14T06:07:02;8.30;;;5.60;;
76807;SDS011;65758;45.458;11.062;2023-03-14T06:09:30;15.80;;;5.90;;
76807;SDS011;65758;45.458;11.062;2023-03-14T06:11:58;8.40;;;6.00;;
76807;SDS011;65758;45.458;11.062;2023-03-14T06:14:25;12.40;;;6.50;;
76807;SDS011;65758;45.458;11.062;2023-03-14T06:16:52;8.60;;;5.40;;
76807;SDS011;65758;45.458;11.062;2023-03-14T06:19:20;8.40;;;5.80;;
76807;SDS011;65758;45.458;11.062;2023-03-14T06:21:47;12.20;;;6.20;;
76807;SDS011;65758;45.458;11.062;2023-03-14T06:24:14;9.40;;;5.90;;
76807;SDS011;65758;45.458;11.062;2023-03-14T06:26:44;10.80;;;6.30;;
76807;SDS011;65758;45.458;11.062;2023-03-14T06:29:11;9.90;;;6.30;;
76807;SDS011;65758;45.458;11.062;2023-03-14T06:31:40;10.90;;;6.40;;
76807;SDS011;65758;45.458;11.062;2023-03-14T06:34:07;11.70;;;6.20;;
76807;SDS011;65758;45.458;11.062;2023-03-14T06:36:34;10.50;;;6.70;;
76807;SDS011;65758;45.458;11.062;2023-03-14T06:39:01;8.70;;;4.70;;
76807;SDS011;65758;45.458;11.062;2023-03-14T06:41:29;10.00;;;6.10;;
76807;SDS011;65758;45.458;11.062;2023-03-14T06:43:56;9.40;;;5.80;;
76807;SDS011;65758;45.458;11.062;2023-03-14T06:46:23;7.70;;;5.60;;
76807;SDS011;65758;45.458;11.062;2023-03-14T06:48:51;10.20;;;5.40;;
76807;SDS011;65758;45.458;11.062;2023-03-14T06:51:18;7.90;;;4.80;;
76807;SDS011;65758;45.458;11.062;2023-03-14T06:53:46;8.30;;;4.70;;
76807;SDS011;65758;45.458;11.062;2023-03-14T06:56:13;7.10;;;4.60;;
76807;SDS011;65758;45.458;11.062;2023-03-14T06:58:41;11.10;;;5.20;;
76807;SDS011;65758;45.458;11.062;2023-03-14T07:01:25;10.50;;;5.20;;
76807;SDS011;65758;45.458;11.062;2023-03-14T07:03:56;10.20;;;6.00;;
76807;SDS011;65758;45.458;11.062;2023-03-14T07:06:23;10.90;;;5.50;;
76807;SDS011;65758;45.458;11.062;2023-03-14T07:08:51;9.90;;;5.50;;
76807;SDS011;65758;45.458;11.062;2023-03-14T07:11:18;9.50;;;5.60;;
76807;SDS011;65758;45.458;11.062;2023-03-14T07:13:45;7.80;;;5.50;;
76807;SDS011;65758;45.458;11.062;2023-03-14T07:16:13;11.90;;;5.70;;
76807;SDS011;65758;45.458;11.062;2023-03-14T07:18:41;7.90;;;4.80;;
76807;SDS011;65758;45.458;11.062;2023-03-14T07:21:08;8.10;;;4.30;;
76807;SDS011;65758;45.458;11.062;2023-03-14T07:23:36;7.30;;;4.30;;
76807;SDS011;65758;45.458;11.062;2023-03-14T07:26:02;8.30;;;4.30;;
76807;SDS011;65758;45.458;11.062;2023-03-14T07:28:30;6.10;;;4.00;;
76807;SDS011;65758;45.458;11.062;2023-03-14T07:31:09;7.50;;;4.30;;
76807;SDS011;65758;45.458;11.062;2023-03-14T07:33:36;7.90;;;3.90;;
76807;SDS011;65758;45.458;11.062;2023-03-14T07:36:04;6.90;;;3.70;;
76807;SDS011;65758;45.458;11.062;2023-03-14T07:38:31;7.70;;;4.30;;
76807;SDS011;65758;45.458;11.062;2023-03-14T07:41:10;8.60;;;4.60;;
76807;SDS011;65758;45.458;11.062;2023-03-14T07:43:44;7.30;;;4.10;;
76807;SDS011;65758;45.458;11.062;2023-03-14T07:46:10;12.00;;;4.60;;
76807;SDS011;65758;45.458;11.062;2023-03-14T07:48:38;7.10;;;4.20;;
76807;SDS011;65758;45.458;11.062;2023-03-14T07:51:04;9.00;;;4.20;;
76807;SDS011;65758;45.458;11.062;2023-03-14T07:53:32;6.30;;;4.20;;
76807;SDS011;65758;45.458;11.062;2023-03-14T07:55:58;8.70;;;4.30;;
76807;SDS011;65758;45.458;11.062;2023-03-14T07:58:25;9.20;;;4.10;;
76807;SDS011;65758;45.458;11.062;2023-03-14T08:00:52;5.50;;;4.20;;
76807;SDS011;65758;45.458;11.062;2023-03-14T08:03:19;15.40;;;5.70;;
76807;SDS011;65758;45.458;11.062;2023-03-14T08:05:47;10.60;;;5.40;;
76807;SDS011;65758;45.458;11.062;2023-03-14T08:08:16;8.10;;;4.40;;
76807;SDS011;65758;45.458;11.062;2023-03-14T08:10:45;8.50;;;4.60;;
76807;SDS011;65758;45.458;11.062;2023-03-14T08:13:13;7.00;;;4.70;;
76807;SDS011;65758;45.458;11.062;2023-03-14T08:15:40;8.00;;;3.80;;
76807;SDS011;65758;45.458;11.062;2023-03-14T08:18:07;6.70;;;4.30;;
76807;SDS011;65758;45.458;11.062;2023-03-14T08:20:33;8.10;;;4.50;;
76807;SDS011;65758;45.458;11.062;2023-03-14T08:23:02;8.10;;;4.40;;
76807;SDS011;65758;45.458;11.062;2023-03-14T08:25:28;7.80;;;4.60;;
76807;SDS011;65758;45.458;11.062;2023-03-14T08:27:56;9.60;;;4.20;;
76807;SDS011;65758;45.458;11.062;2023-03-14T08:30:23;6.40;;;4.50;;
76807;SDS011;65758;45.458;11.062;2023-03-14T08:32:50;5.40;;;3.30;;
76807;SDS011;65758;45.458;11.062;2023-03-14T08:35:17;6.70;;;3.60;;
76807;SDS011;65758;45.458;11.062;2023-03-14T08:37:43;5.80;;;3.80;;
76807;SDS011;65758;45.458;11.062;2023-03-14T08:40:10;6.80;;;2.90;;
76807;SDS011;65758;45.458;11.062;2023-03-14T08:42:38;4.50;;;2.50;;
76807;SDS011;65758;45.458;11.062;2023-03-14T08:45:06;5.70;;;3.10;;
76807;SDS011;65758;45.458;11.062;2023-03-14T08:47:34;5.90;;;2.80;;
76807;SDS011;65758;45.458;11.062;2023-03-14T08:50:01;5.00;;;3.10;;
76807;SDS011;65758;45.458;11.062;2023-03-14T08:52:28;4.30;;;2.30;;
76807;SDS011;65758;45.458;11.062;2023-03-14T08:54:57;5.50;;;2.90;;
76807;SDS011;65758;45.458;11.062;2023-03-14T08:57:25;4.40;;;2.70;;
76807;SDS011;65758;45.458;11.062;2023-03-14T08:59:54;5.30;;;3.10;;
76807;SDS011;65758;45.458;11.062;2023-03-14T09:02:22;5.00;;;3.40;;
76807;SDS011;65758;45.458;11.062;2023-03-14T09:04:50;5.40;;;3.00;;
76807;SDS011;65758;45.458;11.062;2023-03-14T09:10:10;5.80;;;3.00;;
76807;SDS011;65758;45.458;11.062;2023-03-14T09:12:37;6.10;;;3.60;;
76807;SDS011;65758;45.458;11.062;2023-03-14T09:15:04;6.90;;;3.10;;
76807;SDS011;65758;45.458;11.062;2023-03-14T09:17:31;4.60;;;2.70;;
76807;SDS011;65758;45.458;11.062;2023-03-14T09:19:58;3.60;;;2.90;;
76807;SDS011;65758;45.458;11.062;2023-03-14T09:22:26;4.40;;;3.00;;
76807;SDS011;65758;45.458;11.062;2023-03-14T09:24:53;5.20;;;2.90;;
76807;SDS011;65758;45.458;11.062;2023-03-14T09:27:19;7.10;;;3.00;;
76807;SDS011;65758;45.458;11.062;2023-03-14T09:29:46;3.80;;;2.60;;
76807;SDS011;65758;45.458;11.062;2023-03-14T09:32:13;4.20;;;2.70;;
76807;SDS011;65758;45.458;11.062;2023-03-14T09:34:39;3.80;;;2.70;;
76807;SDS011;65758;45.458;11.062;2023-03-14T09:37:06;5.00;;;2.70;;
76807;SDS011;65758;45.458;11.062;2023-03-14T09:39:33;12.10;;;6.10;;
76807;SDS011;65758;45.458;11.062;2023-03-14T09:42:01;9.00;;;4.50;;
76807;SDS011;65758;45.458;11.062;2023-03-14T09:44:37;21.00;;;7.90;;
76807;SDS011;65758;45.458;11.062;2023-03-14T09:47:10;30.30;;;11.00;;
76807;SDS011;65758;45.458;11.062;2023-03-14T09:49:40;24.70;;;10.30;;
76807;SDS011;65758;45.458;11.062;2023-03-14T09:52:12;17.30;;;7.40;;
76807;SDS011;65758;45.458;11.062;2023-03-14T09:54:47;15.50;;;6.20;;
76807;SDS011;65758;45.458;11.062;2023-03-14T09:57:18;8.80;;;5.00;;
76807;SDS011;65758;45.458;11.062;2023-03-14T09:59:47;7.80;;;4.80;;
76807;SDS011;65758;45.458;11.062;2023-03-14T10:02:19;13.00;;;7.00;;
76807;SDS011;65758;45.458;11.062;2023-03-14T10:04:49;9.00;;;4.60;;
76807;SDS011;65758;45.458;11.062;2023-03-14T10:07:18;6.60;;;4.60;;
76807;SDS011;65758;45.458;11.062;2023-03-14T10:09:56;7.60;;;4.60;;
76807;SDS011;65758;45.458;11.062;2023-03-14T10:12:31;5.10;;;2.80;;
76807;SDS011;65758;45.458;11.062;2023-03-14T10:15:03;8.00;;;4.10;;
76807;SDS011;65758;45.458;11.062;2023-03-14T10:17:39;6.20;;;4.00;;
76807;SDS011;65758;45.458;11.062;2023-03-14T10:20:26;4.80;;;3.70;;
76807;SDS011;65758;45.458;11.062;2023-03-14T10:22:54;3.80;;;3.30;;
76807;SDS011;65758;45.458;11.062;2023-03-14T10:25:26;5.00;;;3.60;;
76807;SDS011;65758;45.458;11.062;2023-03-14T10:27:58;3.60;;;2.90;;
76807;SDS011;65758;45.458;11.062;2023-03-14T10:30:29;4.80;;;3.50;;
76807;SDS011;65758;45.458;11.062;2023-03-14T10:33:08;4.70;;;2.70;;
76807;SDS011;65758;45.458;11.062;2023-03-14T10:35:36;4.30;;;3.00;;
76807;SDS011;65758;45.458;11.062;2023-03-14T10:38:03;3.10;;;2.30;;
76807;SDS011;65758;45.458;11.062;2023-03-14T10:40:31;4.70;;;3.00;;
76807;SDS011;65758;45.458;11.062;2023-03-14T10:43:01;4.10;;;2.80;;
76807;SDS011;65758;45.458;11.062;2023-03-14T10:45:32;4.00;;;2.60;;
76807;SDS011;65758;45.458;11.062;2023-03-14T10:50:53;4.40;;;3.30;;
76807;SDS011;65758;45.458;11.062;2023-03-14T10:53:34;3.40;;;2.50;;
76807;SDS011;65758;45.458;11.062;2023-03-14T10:56:07;6.20;;;3.60;;
76807;SDS011;65758;45.458;11.062;2023-03-14T10:58:41;3.50;;;2.30;;
76807;SDS011;65758;45.458;11.062;2023-03-14T11:12:25;2.70;;;2.50;;
76807;SDS011;65758;45.458;11.062;2023-03-14T11:15:14;2.90;;;2.30;;
76807;SDS011;65758;45.458;11.062;2023-03-14T11:23:13;6.10;;;3.50;;
76807;SDS011;65758;45.458;11.062;2023-03-14T11:28:37;4.70;;;3.10;;
76807;SDS011;65758;45.458;11.062;2023-03-14T11:31:13;2.90;;;2.40;;
76807;SDS011;65758;45.458;11.062;2023-03-14T11:34:07;3.70;;;2.50;;
76807;SDS011;65758;45.458;11.062;2023-03-14T11:36:40;4.10;;;2.60;;
76807;SDS011;65758;45.458;11.062;2023-03-14T11:39:11;3.50;;;2.50;;
76807;SDS011;65758;45.458;11.062;2023-03-14T11:41:43;4.80;;;3.20;;
76807;SDS011;65758;45.458;11.062;2023-03-14T11:44:17;5.30;;;3.70;;
76807;SDS011;65758;45.458;11.062;2023-03-14T11:46:54;5.50;;;3.90;;
76807;SDS011;65758;45.458;11.062;2023-03-14T11:52:13;4.70;;;3.00;;
76807;SDS011;65758;45.458;11.062;2023-03-14T11:57:33;3.00;;;2.70;;
76807;SDS011;65758;45.458;11.062;2023-03-14T12:00:16;2.60;;;2.40;;
76807;SDS011;65758;45.458;11.062;2023-03-14T12:05:30;2.80;;;2.50;;
76807;SDS011;65758;45.458;11.062;2023-03-14T12:10:41;3.80;;;2.60;;
76807;SDS011;65758;45.458;11.062;2023-03-14T12:13:12;3.00;;;2.70;;
76807;SDS011;65758;45.458;11.062;2023-03-14T12:15:41;4.50;;;2.80;;
76807;SDS011;65758;45.458;11.062;2023-03-14T12:18:30;4.00;;;2.90;;
76807;SDS011;65758;45.458;11.062;2023-03-14T12:21:00;4.60;;;3.30;;
76807;SDS011;65758;45.458;11.062;2023-03-14T12:23:34;4.50;;;3.20;;
76807;SDS011;65758;45.458;11.062;2023-03-14T12:26:13;4.10;;;2.50;;
76807;SDS011;65758;45.458;11.062;2023-03-14T12:29:09;4.50;;;3.00;;
76807;SDS011;65758;45.458;11.062;2023-03-14T12:31:42;3.00;;;2.70;;
76807;SDS011;65758;45.458;11.062;2023-03-14T12:39:34;2.80;;;2.50;;
76807;SDS011;65758;45.458;11.062;2023-03-14T12:42:07;2.70;;;2.50;;
76807;SDS011;65758;45.458;11.062;2023-03-14T12:44:52;3.10;;;2.80;;
76807;SDS011;65758;45.458;11.062;2023-03-14T12:49:46;4.50;;;2.70;;
76807;SDS011;65758;45.458;11.062;2023-03-14T12:52:20;2.80;;;2.90;;
76807;SDS011;65758;45.458;11.062;2023-03-14T12:55:08;2.80;;;2.50;;
76807;SDS011;65758;45.458;11.062;2023-03-14T12:57:45;2.80;;;2.60;;
76807;SDS011;65758;45.458;11.062;2023-03-14T13:02:50;3.00;;;2.80;;
76807;SDS011;65758;45.458;11.062;2023-03-14T13:05:23;3.10;;;2.50;;
76807;SDS011;65758;45.458;11.062;2023-03-14T13:10:26;2.50;;;2.30;;
76807;SDS011;65758;45.458;11.062;2023-03-14T13:15:42;3.20;;;2.40;;
76807;SDS011;65758;45.458;11.062;2023-03-14T13:18:12;6.10;;;5.10;;
76807;SDS011;65758;45.458;11.062;2023-03-14T13:20:46;9.40;;;8.60;;
76807;SDS011;65758;45.458;11.062;2023-03-14T13:23:24;12.90;;;11.50;;
76807;SDS011;65758;45.458;11.062;2023-03-14T13:25:53;10.10;;;9.10;;
76807;SDS011;65758;45.458;11.062;2023-03-14T13:28:21;9.50;;;7.80;;
76807;SDS011;65758;45.458;11.062;2023-03-14T13:30:48;10.20;;;7.80;;
76807;SDS011;65758;45.458;11.062;2023-03-14T13:33:18;8.30;;;7.40;;
76807;SDS011;65758;45.458;11.062;2023-03-14T13:35:48;4.80;;;4.40;;
76807;SDS011;65758;45.458;11.062;2023-03-14T13:38:22;4.50;;;3.90;;
76807;SDS011;65758;45.458;11.062;2023-03-14T13:40:51;3.70;;;3.30;;
76807;SDS011;65758;45.458;11.062;2023-03-14T13:43:29;3.40;;;2.50;;
76807;SDS011;65758;45.458;11.062;2023-03-14T13:48:34;3.40;;;3.00;;
76807;SDS011;65758;45.458;11.062;2023-03-14T13:51:10;2.80;;;2.50;;
76807;SDS011;65758;45.458;11.062;2023-03-14T13:53:53;4.00;;;2.70;;
76807;SDS011;65758;45.458;11.062;2023-03-14T13:56:22;3.10;;;2.60;;
76807;SDS011;65758;45.458;11.062;2023-03-14T13:58:54;3.30;;;2.20;;
76807;SDS011;65758;45.458;11.062;2023-03-14T14:03:58;3.80;;;2.10;;
76807;SDS011;65758;45.458;11.062;2023-03-14T14:06:55;2.10;;;1.60;;
76807;SDS011;65758;45.458;11.062;2023-03-14T14:11:59;2.10;;;2.00;;
76807;SDS011;65758;45.458;11.062;2023-03-14T14:14:46;2.90;;;2.40;;
76807;SDS011;65758;45.458;11.062;2023-03-14T14:20:18;5.30;;;2.40;;
76807;SDS011;65758;45.458;11.062;2023-03-14T14:23:12;3.20;;;2.70;;
76807;SDS011;65758;45.458;11.062;2023-03-14T14:25:43;2.70;;;2.50;;
76807;SDS011;65758;45.458;11.062;2023-03-14T14:28:20;4.40;;;3.10;;
76807;SDS011;65758;45.458;11.062;2023-03-14T14:33:53;2.60;;;2.40;;
76807;SDS011;65758;45.458;11.062;2023-03-14T14:41:35;3.60;;;2.70;;
76807;SDS011;65758;45.458;11.062;2023-03-14T14:44:10;2.30;;;2.10;;
76807;SDS011;65758;45.458;11.062;2023-03-14T14:46:38;2.50;;;1.70;;
76807;SDS011;65758;45.458;11.062;2023-03-14T14:49:08;2.90;;;1.80;;
76807;SDS011;65758;45.458;11.062;2023-03-14T14:51:42;1.30;;;1.20;;
76807;SDS011;65758;45.458;11.062;2023-03-14T14:54:18;1.70;;;1.60;;
76807;SDS011;65758;45.458;11.062;2023-03-14T14:56:50;3.10;;;1.30;;
76807;SDS011;65758;45.458;11.062;2023-03-14T14:59:23;1.50;;;1.40;;
76807;SDS011;65758;45.458;11.062;2023-03-14T15:02:00;1.60;;;1.50;;
76807;SDS011;65758;45.458;11.062;2023-03-14T15:04:31;2.30;;;1.50;;
76807;SDS011;65758;45.458;11.062;2023-03-14T15:06:58;1.90;;;1.80;;
76807;SDS011;65758;45.458;11.062;2023-03-14T15:09:25;2.10;;;1.90;;
76807;SDS011;65758;45.458;11.062;2023-03-14T15:11:52;1.60;;;1.50;;
76807;SDS011;65758;45.458;11.062;2023-03-14T15:14:19;1.90;;;1.80;;
76807;SDS011;65758;45.458;11.062;2023-03-14T15:16:45;2.40;;;1.70;;
76807;SDS011;65758;45.458;11.062;2023-03-14T15:19:30;1.60;;;1.50;;
76807;SDS011;65758;45.458;11.062;2023-03-14T15:21:59;1.90;;;1.50;;
76807;SDS011;65758;45.458;11.062;2023-03-14T15:24:26;2.30;;;1.70;;
76807;SDS011;65758;45.458;11.062;2023-03-14T15:26:53;2.20;;;2.00;;
76807;SDS011;65758;45.458;11.062;2023-03-14T15:29:20;1.80;;;1.70;;
76807;SDS011;65758;45.458;11.062;2023-03-14T15:31:46;2.30;;;1.80;;
76807;SDS011;65758;45.458;11.062;2023-03-14T15:34:13;2.10;;;1.90;;
76807;SDS011;65758;45.458;11.062;2023-03-14T15:36:41;1.90;;;1.80;;
76807;SDS011;65758;45.458;11.062;2023-03-14T15:39:09;2.50;;;1.80;;
76807;SDS011;65758;45.458;11.062;2023-03-14T15:41:36;3.00;;;1.80;;
76807;SDS011;65758;45.458;11.062;2023-03-14T15:44:03;2.00;;;1.80;;
76807;SDS011;65758;45.458;11.062;2023-03-14T15:46:30;2.30;;;2.10;;
76807;SDS011;65758;45.458;11.062;2023-03-14T15:48:57;2.20;;;1.80;;
76807;SDS011;65758;45.458;11.062;2023-03-14T15:51:23;2.30;;;2.10;;
76807;SDS011;65758;45.458;11.062;2023-03-14T15:53:50;2.70;;;2.20;;
76807;SDS011;65758;45.458;11.062;2023-03-14T15:56:18;2.20;;;2.00;;
76807;SDS011;65758;45.458;11.062;2023-03-14T15:58:46;3.20;;;2.50;;
76807;SDS011;65758;45.458;11.062;2023-03-14T16:01:13;6.50;;;3.60;;
76807;SDS011;65758;45.458;11.062;2023-03-14T16:03:43;5.00;;;3.50;;
76807;SDS011;65758;45.458;11.062;2023-03-14T16:06:11;3.70;;;2.20;;
76807;SDS011;65758;45.458;11.062;2023-03-14T16:08:39;5.00;;;3.10;;
76807;SDS011;65758;45.458;11.062;2023-03-14T16:11:06;4.40;;;2.90;;
76807;SDS011;65758;45.458;11.062;2023-03-14T16:13:33;3.60;;;2.20;;
76807;SDS011;65758;45.458;11.062;2023-03-14T16:16:00;4.00;;;2.50;;